sensor_id;sensor_type;location;lat;lon;timestamp;P1;durP1;ratioP1;P2;durP2;ratioP2
48524;SDS011;34316;51.514;-0.178;2024-01-06T00:00:49;38.08;;;23.63;;
48524;SDS011;34316;51.514;-0.178;2024-01-06T00:02:51;42.15;;;25.38;;
48524;SDS011;34316;51.514;-0.178;2024-01-06T00:04:53;37.97;;;22.73;;
48524;SDS011;34316;51.514;-0.178;2024-01-06T00:06:55;34.88;;;22.30;;
48524;SDS011;34316;51.514;-0.178;2024-01-06T00:08:57;37.22;;;22.90;;
48524;SDS011;34316;51.514;-0.178;2024-01-06T00:10:58;36.88;;;24.02;;
48524;SDS011;34316;51.514;-0.178;2024-01-06T00:13:04;39.90;;;23.42;;
48524;SDS011;34316;51.514;-0.178;2024-01-06T00:15:06;35.45;;;22.55;;
48524;SDS011;34316;51.514;-0.178;2024-01-06T00:17:08;42.80;;;22.55;;
48524;SDS011;34316;51.514;-0.178;2024-01-06T00:19:10;38.40;;;21.67;;
48524;SDS011;34316;51.514;-0.178;2024-01-06T00:21:12;34.08;;;21.50;;
48524;SDS011;34316;51.514;-0.178;2024-01-06T00:23:14;35.67;;;22.17;;
48524;SDS011;34316;51.514;-0.178;2024-01-06T00:25:16;39.30;;;24.27;;
48524;SDS011;34316;51.514;-0.178;2024-01-06T00:27:18;39.13;;;25.65;;
48524;SDS011;34316;51.514;-0.178;2024-01-06T00:29:20;44.45;;;27.13;;
48524;SDS011;34316;51.514;-0.178;2024-01-06T00:31:22;51.30;;;27.50;;
48524;SDS011;34316;51.514;-0.178;2024-01-06T00:33:24;45.75;;;27.42;;
48524;SDS011;34316;51.514;-0.178;2024-01-06T00:35:26;43.53;;;27.38;;
48524;SDS011;34316;51.514;-0.178;2024-01-06T00:37:28;42.55;;;28.48;;
48524;SDS011;34316;51.514;-0.178;2024-01-06T00:39:29;48.65;;;30.23;;
48524;SDS011;34316;51.514;-0.178;2024-01-06T00:41:31;77.22;;;48.40;;
48524;SDS011;34316;51.514;-0.178;2024-01-06T00:43:33;89.03;;;52.80;;
48524;SDS011;34316;51.514;-0.178;2024-01-06T00:45:35;91.32;;;56.75;;
48524;SDS011;34316;51.514;-0.178;2024-01-06T00:47:37;85.35;;;53.08;;
48524;SDS011;34316;51.514;-0.178;2024-01-06T00:51:43;75.70;;;47.97;;
48524;SDS011;34316;51.514;-0.178;2024-01-06T00:53:45;84.70;;;49.83;;
48524;SDS011;34316;51.514;-0.178;2024-01-06T00:55:47;73.93;;;46.60;;
48524;SDS011;34316;51.514;-0.178;2024-01-06T00:57:48;68.70;;;42.58;;
48524;SDS011;34316;51.514;-0.178;2024-01-06T00:59:51;77.22;;;43.55;;
48524;SDS011;34316;51.514;-0.178;2024-01-06T01:01:53;69.78;;;44.03;;
48524;SDS011;34316;51.514;-0.178;2024-01-06T01:03:55;69.05;;;41.63;;
48524;SDS011;34316;51.514;-0.178;2024-01-06T01:05:57;58.85;;;40.78;;
48524;SDS011;34316;51.514;-0.178;2024-01-06T01:07:59;65.53;;;43.22;;
48524;SDS011;34316;51.514;-0.178;2024-01-06T01:10:01;63.53;;;39.95;;
48524;SDS011;34316;51.514;-0.178;2024-01-06T01:12:03;64.57;;;40.83;;
48524;SDS011;34316;51.514;-0.178;2024-01-06T01:14:05;61.13;;;37.92;;
48524;SDS011;34316;51.514;-0.178;2024-01-06T01:16:07;62.22;;;38.28;;
48524;SDS011;34316;51.514;-0.178;2024-01-06T01:18:09;58.05;;;38.63;;
48524;SDS011;34316;51.514;-0.178;2024-01-06T01:20:11;63.83;;;40.63;;
48524;SDS011;34316;51.514;-0.178;2024-01-06T01:22:13;61.08;;;39.78;;
48524;SDS011;34316;51.514;-0.178;2024-01-06T01:24:15;60.03;;;38.03;;
48524;SDS011;34316;51.514;-0.178;2024-01-06T01:26:17;61.05;;;41.28;;
48524;SDS011;34316;51.514;-0.178;2024-01-06T01:28:19;59.63;;;39.03;;
48524;SDS011;34316;51.514;-0.178;2024-01-06T01:30:20;61.33;;;38.55;;
48524;SDS011;34316;51.514;-0.178;2024-01-06T01:32:23;61.63;;;38.25;;
48524;SDS011;34316;51.514;-0.178;2024-01-06T01:34:25;57.75;;;38.92;;
48524;SDS011;34316;51.514;-0.178;2024-01-06T01:36:27;55.60;;;37.75;;
48524;SDS011;34316;51.514;-0.178;2024-01-06T01:38:29;62.47;;;38.28;;
48524;SDS011;34316;51.514;-0.178;2024-01-06T01:40:31;65.60;;;39.35;;
48524;SDS011;34316;51.514;-0.178;2024-01-06T01:42:33;62.03;;;38.13;;
48524;SDS011;34316;51.514;-0.178;2024-01-06T01:44:35;59.00;;;38.30;;
48524;SDS011;34316;51.514;-0.178;2024-01-06T01:46:37;66.05;;;38.47;;
48524;SDS011;34316;51.514;-0.178;2024-01-06T01:48:39;61.03;;;37.10;;
48524;SDS011;34316;51.514;-0.178;2024-01-06T01:50:41;57.65;;;38.78;;
48524;SDS011;34316;51.514;-0.178;2024-01-06T01:52:43;55.50;;;37.63;;
48524;SDS011;34316;51.514;-0.178;2024-01-06T01:54:45;53.90;;;37.38;;
48524;SDS011;34316;51.514;-0.178;2024-01-06T01:56:47;57.47;;;37.10;;
48524;SDS011;34316;51.514;-0.178;2024-01-06T01:58:49;53.72;;;32.63;;
48524;SDS011;34316;51.514;-0.178;2024-01-06T02:00:51;48.72;;;29.48;;
48524;SDS011;34316;51.514;-0.178;2024-01-06T02:02:53;49.30;;;29.65;;
48524;SDS011;34316;51.514;-0.178;2024-01-06T02:04:55;49.63;;;29.83;;
48524;SDS011;34316;51.514;-0.178;2024-01-06T02:06:57;49.30;;;26.27;;
48524;SDS011;34316;51.514;-0.178;2024-01-06T02:08:59;48.55;;;30.80;;
48524;SDS011;34316;51.514;-0.178;2024-01-06T02:11:01;49.55;;;30.52;;
48524;SDS011;34316;51.514;-0.178;2024-01-06T02:13:08;44.97;;;30.73;;
48524;SDS011;34316;51.514;-0.178;2024-01-06T02:15:11;51.28;;;29.92;;
48524;SDS011;34316;51.514;-0.178;2024-01-06T02:17:13;47.75;;;30.33;;
48524;SDS011;34316;51.514;-0.178;2024-01-06T02:19:15;52.70;;;30.58;;
48524;SDS011;34316;51.514;-0.178;2024-01-06T02:21:21;42.13;;;30.45;;
48524;SDS011;34316;51.514;-0.178;2024-01-06T02:23:24;44.05;;;28.60;;
48524;SDS011;34316;51.514;-0.178;2024-01-06T02:25:26;47.00;;;28.75;;
48524;SDS011;34316;51.514;-0.178;2024-01-06T02:27:28;41.83;;;27.67;;
48524;SDS011;34316;51.514;-0.178;2024-01-06T02:29:30;43.00;;;26.65;;
48524;SDS011;34316;51.514;-0.178;2024-01-06T02:31:32;45.38;;;26.33;;
48524;SDS011;34316;51.514;-0.178;2024-01-06T02:33:34;39.03;;;24.63;;
48524;SDS011;34316;51.514;-0.178;2024-01-06T02:35:36;40.22;;;26.90;;
48524;SDS011;34316;51.514;-0.178;2024-01-06T02:37:38;41.83;;;27.17;;
48524;SDS011;34316;51.514;-0.178;2024-01-06T02:39:39;52.25;;;26.10;;
48524;SDS011;34316;51.514;-0.178;2024-01-06T02:41:41;46.45;;;28.02;;
48524;SDS011;34316;51.514;-0.178;2024-01-06T02:43:43;42.33;;;26.88;;
48524;SDS011;34316;51.514;-0.178;2024-01-06T02:45:45;47.63;;;26.75;;
48524;SDS011;34316;51.514;-0.178;2024-01-06T02:47:48;39.80;;;25.23;;
48524;SDS011;34316;51.514;-0.178;2024-01-06T02:49:51;39.58;;;25.40;;
48524;SDS011;34316;51.514;-0.178;2024-01-06T02:51:52;34.88;;;25.23;;
48524;SDS011;34316;51.514;-0.178;2024-01-06T02:53:54;45.75;;;25.25;;
48524;SDS011;34316;51.514;-0.178;2024-01-06T02:55:56;39.63;;;25.77;;
48524;SDS011;34316;51.514;-0.178;2024-01-06T02:57:58;39.72;;;24.02;;
48524;SDS011;34316;51.514;-0.178;2024-01-06T03:00:00;36.83;;;23.67;;
48524;SDS011;34316;51.514;-0.178;2024-01-06T03:02:02;38.20;;;23.27;;
48524;SDS011;34316;51.514;-0.178;2024-01-06T03:04:04;38.28;;;21.75;;
48524;SDS011;34316;51.514;-0.178;2024-01-06T03:06:06;43.03;;;22.65;;
48524;SDS011;34316;51.514;-0.178;2024-01-06T03:08:08;33.58;;;22.60;;
48524;SDS011;34316;51.514;-0.178;2024-01-06T03:10:10;33.42;;;23.23;;
48524;SDS011;34316;51.514;-0.178;2024-01-06T03:12:11;33.85;;;22.10;;
48524;SDS011;34316;51.514;-0.178;2024-01-06T03:14:13;45.40;;;22.55;;
48524;SDS011;34316;51.514;-0.178;2024-01-06T03:16:17;35.58;;;22.40;;
48524;SDS011;34316;51.514;-0.178;2024-01-06T03:18:18;32.80;;;22.00;;
48524;SDS011;34316;51.514;-0.178;2024-01-06T03:20:20;36.95;;;22.05;;
48524;SDS011;34316;51.514;-0.178;2024-01-06T03:22:22;35.35;;;22.90;;
48524;SDS011;34316;51.514;-0.178;2024-01-06T03:24:25;35.65;;;21.95;;
48524;SDS011;34316;51.514;-0.178;2024-01-06T03:26:28;41.30;;;22.95;;
48524;SDS011;34316;51.514;-0.178;2024-01-06T03:28:30;40.95;;;22.83;;
48524;SDS011;34316;51.514;-0.178;2024-01-06T03:30:32;30.50;;;21.38;;
48524;SDS011;34316;51.514;-0.178;2024-01-06T03:32:33;34.38;;;20.52;;
48524;SDS011;34316;51.514;-0.178;2024-01-06T03:34:35;33.95;;;20.52;;
48524;SDS011;34316;51.514;-0.178;2024-01-06T03:36:38;28.27;;;17.88;;
48524;SDS011;34316;51.514;-0.178;2024-01-06T03:38:40;24.75;;;17.42;;
48524;SDS011;34316;51.514;-0.178;2024-01-06T03:40:42;28.08;;;18.25;;
48524;SDS011;34316;51.514;-0.178;2024-01-06T03:42:44;35.78;;;19.08;;
48524;SDS011;34316;51.514;-0.178;2024-01-06T03:44:46;30.75;;;18.65;;
48524;SDS011;34316;51.514;-0.178;2024-01-06T03:46:48;28.70;;;17.90;;
48524;SDS011;34316;51.514;-0.178;2024-01-06T03:48:50;25.63;;;16.10;;
48524;SDS011;34316;51.514;-0.178;2024-01-06T03:50:52;30.55;;;17.55;;
48524;SDS011;34316;51.514;-0.178;2024-01-06T03:52:54;25.10;;;15.65;;
48524;SDS011;34316;51.514;-0.178;2024-01-06T03:54:56;25.58;;;15.32;;
48524;SDS011;34316;51.514;-0.178;2024-01-06T03:56:57;25.58;;;15.55;;
48524;SDS011;34316;51.514;-0.178;2024-01-06T03:58:59;26.00;;;14.75;;
48524;SDS011;34316;51.514;-0.178;2024-01-06T04:01:01;26.02;;;15.10;;
48524;SDS011;34316;51.514;-0.178;2024-01-06T04:03:03;23.77;;;14.13;;
48524;SDS011;34316;51.514;-0.178;2024-01-06T04:05:07;23.52;;;14.02;;
48524;SDS011;34316;51.514;-0.178;2024-01-06T04:07:09;24.88;;;14.82;;
48524;SDS011;34316;51.514;-0.178;2024-01-06T04:09:11;22.98;;;14.02;;
48524;SDS011;34316;51.514;-0.178;2024-01-06T04:11:16;22.52;;;13.93;;
48524;SDS011;34316;51.514;-0.178;2024-01-06T04:13:18;25.67;;;15.05;;
48524;SDS011;34316;51.514;-0.178;2024-01-06T04:15:20;22.60;;;14.32;;
48524;SDS011;34316;51.514;-0.178;2024-01-06T04:17:22;24.88;;;15.00;;
48524;SDS011;34316;51.514;-0.178;2024-01-06T04:19:24;23.50;;;13.95;;
48524;SDS011;34316;51.514;-0.178;2024-01-06T04:21:26;23.45;;;13.82;;
48524;SDS011;34316;51.514;-0.178;2024-01-06T04:23:27;21.02;;;13.20;;
48524;SDS011;34316;51.514;-0.178;2024-01-06T04:25:29;22.85;;;13.25;;
48524;SDS011;34316;51.514;-0.178;2024-01-06T04:27:31;26.42;;;12.93;;
48524;SDS011;34316;51.514;-0.178;2024-01-06T04:29:35;20.65;;;13.15;;
48524;SDS011;34316;51.514;-0.178;2024-01-06T04:31:37;24.83;;;13.68;;
48524;SDS011;34316;51.514;-0.178;2024-01-06T04:33:39;20.45;;;13.63;;
48524;SDS011;34316;51.514;-0.178;2024-01-06T04:35:42;23.73;;;13.48;;
48524;SDS011;34316;51.514;-0.178;2024-01-06T04:37:44;21.13;;;13.20;;
48524;SDS011;34316;51.514;-0.178;2024-01-06T04:39:46;24.98;;;14.88;;
48524;SDS011;34316;51.514;-0.178;2024-01-06T04:41:48;24.15;;;14.68;;
48524;SDS011;34316;51.514;-0.178;2024-01-06T04:43:49;28.67;;;16.65;;
48524;SDS011;34316;51.514;-0.178;2024-01-06T04:45:51;24.65;;;15.95;;
48524;SDS011;34316;51.514;-0.178;2024-01-06T04:47:53;26.42;;;15.43;;
48524;SDS011;34316;51.514;-0.178;2024-01-06T04:49:55;28.25;;;17.17;;
48524;SDS011;34316;51.514;-0.178;2024-01-06T04:51:57;27.77;;;15.35;;
48524;SDS011;34316;51.514;-0.178;2024-01-06T04:53:59;31.70;;;17.40;;
48524;SDS011;34316;51.514;-0.178;2024-01-06T04:56:01;28.50;;;16.40;;
48524;SDS011;34316;51.514;-0.178;2024-01-06T04:58:03;26.08;;;15.68;;
48524;SDS011;34316;51.514;-0.178;2024-01-06T05:00:05;30.23;;;16.75;;
48524;SDS011;34316;51.514;-0.178;2024-01-06T05:02:07;27.70;;;16.42;;
48524;SDS011;34316;51.514;-0.178;2024-01-06T05:04:10;28.63;;;17.20;;
48524;SDS011;34316;51.514;-0.178;2024-01-06T05:06:12;26.10;;;16.73;;
48524;SDS011;34316;51.514;-0.178;2024-01-06T05:08:14;26.35;;;16.77;;
48524;SDS011;34316;51.514;-0.178;2024-01-06T05:10:16;26.80;;;16.83;;
48524;SDS011;34316;51.514;-0.178;2024-01-06T05:12:18;28.63;;;15.90;;
48524;SDS011;34316;51.514;-0.178;2024-01-06T05:14:20;24.67;;;16.35;;
48524;SDS011;34316;51.514;-0.178;2024-01-06T05:16:22;26.63;;;16.67;;
48524;SDS011;34316;51.514;-0.178;2024-01-06T05:18:24;31.70;;;17.25;;
48524;SDS011;34316;51.514;-0.178;2024-01-06T05:20:26;24.55;;;16.10;;
48524;SDS011;34316;51.514;-0.178;2024-01-06T05:22:28;27.92;;;16.58;;
48524;SDS011;34316;51.514;-0.178;2024-01-06T05:24:30;24.52;;;15.02;;
48524;SDS011;34316;51.514;-0.178;2024-01-06T05:26:32;30.42;;;16.08;;
48524;SDS011;34316;51.514;-0.178;2024-01-06T05:28:34;27.10;;;15.05;;
48524;SDS011;34316;51.514;-0.178;2024-01-06T05:30:36;28.25;;;15.10;;
48524;SDS011;34316;51.514;-0.178;2024-01-06T05:32:37;26.35;;;15.38;;
48524;SDS011;34316;51.514;-0.178;2024-01-06T05:34:40;27.65;;;16.08;;
48524;SDS011;34316;51.514;-0.178;2024-01-06T05:36:42;26.77;;;15.57;;
48524;SDS011;34316;51.514;-0.178;2024-01-06T05:38:44;25.58;;;15.52;;
48524;SDS011;34316;51.514;-0.178;2024-01-06T05:40:46;28.13;;;16.02;;
48524;SDS011;34316;51.514;-0.178;2024-01-06T05:42:48;26.60;;;15.70;;
48524;SDS011;34316;51.514;-0.178;2024-01-06T05:44:49;21.63;;;15.35;;
48524;SDS011;34316;51.514;-0.178;2024-01-06T05:46:52;23.00;;;15.70;;
48524;SDS011;34316;51.514;-0.178;2024-01-06T05:48:53;23.27;;;15.80;;
48524;SDS011;34316;51.514;-0.178;2024-01-06T05:50:57;23.73;;;14.13;;
48524;SDS011;34316;51.514;-0.178;2024-01-06T05:52:59;22.27;;;14.77;;
48524;SDS011;34316;51.514;-0.178;2024-01-06T05:55:01;29.17;;;15.88;;
48524;SDS011;34316;51.514;-0.178;2024-01-06T05:57:03;22.15;;;13.95;;
48524;SDS011;34316;51.514;-0.178;2024-01-06T05:59:05;21.42;;;15.07;;
48524;SDS011;34316;51.514;-0.178;2024-01-06T06:01:07;21.50;;;13.77;;
48524;SDS011;34316;51.514;-0.178;2024-01-06T06:03:09;22.48;;;13.65;;
48524;SDS011;34316;51.514;-0.178;2024-01-06T06:05:11;20.70;;;13.50;;
48524;SDS011;34316;51.514;-0.178;2024-01-06T06:07:13;24.67;;;13.30;;
48524;SDS011;34316;51.514;-0.178;2024-01-06T06:09:15;17.73;;;11.50;;
48524;SDS011;34316;51.514;-0.178;2024-01-06T06:11:17;20.77;;;11.95;;
48524;SDS011;34316;51.514;-0.178;2024-01-06T06:13:20;16.55;;;11.70;;
48524;SDS011;34316;51.514;-0.178;2024-01-06T06:15:21;21.00;;;11.73;;
48524;SDS011;34316;51.514;-0.178;2024-01-06T06:17:23;18.83;;;10.98;;
48524;SDS011;34316;51.514;-0.178;2024-01-06T06:19:27;28.15;;;11.80;;
48524;SDS011;34316;51.514;-0.178;2024-01-06T06:21:29;16.65;;;11.52;;
48524;SDS011;34316;51.514;-0.178;2024-01-06T06:23:31;18.23;;;11.52;;
48524;SDS011;34316;51.514;-0.178;2024-01-06T06:25:33;19.42;;;11.88;;
48524;SDS011;34316;51.514;-0.178;2024-01-06T06:27:35;19.77;;;11.95;;
48524;SDS011;34316;51.514;-0.178;2024-01-06T06:29:38;19.63;;;11.88;;
48524;SDS011;34316;51.514;-0.178;2024-01-06T06:31:40;21.85;;;14.23;;
48524;SDS011;34316;51.514;-0.178;2024-01-06T06:33:43;24.88;;;13.63;;
48524;SDS011;34316;51.514;-0.178;2024-01-06T06:35:45;24.20;;;13.15;;
48524;SDS011;34316;51.514;-0.178;2024-01-06T06:37:47;17.58;;;11.48;;
48524;SDS011;34316;51.514;-0.178;2024-01-06T06:39:49;22.33;;;13.40;;
48524;SDS011;34316;51.514;-0.178;2024-01-06T06:41:51;30.23;;;14.13;;
48524;SDS011;34316;51.514;-0.178;2024-01-06T06:43:54;27.30;;;15.48;;
48524;SDS011;34316;51.514;-0.178;2024-01-06T06:45:56;23.83;;;14.95;;
48524;SDS011;34316;51.514;-0.178;2024-01-06T06:47:58;21.80;;;14.15;;
48524;SDS011;34316;51.514;-0.178;2024-01-06T06:50:00;21.70;;;14.45;;
48524;SDS011;34316;51.514;-0.178;2024-01-06T06:52:02;26.52;;;14.27;;
48524;SDS011;34316;51.514;-0.178;2024-01-06T06:54:05;21.65;;;12.27;;
48524;SDS011;34316;51.514;-0.178;2024-01-06T06:56:08;19.90;;;11.30;;
48524;SDS011;34316;51.514;-0.178;2024-01-06T06:58:09;20.15;;;11.85;;
48524;SDS011;34316;51.514;-0.178;2024-01-06T07:00:11;17.70;;;11.23;;
48524;SDS011;34316;51.514;-0.178;2024-01-06T07:02:14;19.77;;;10.70;;
48524;SDS011;34316;51.514;-0.178;2024-01-06T07:04:16;18.05;;;11.35;;
48524;SDS011;34316;51.514;-0.178;2024-01-06T07:06:18;22.45;;;11.70;;
48524;SDS011;34316;51.514;-0.178;2024-01-06T07:08:20;20.95;;;12.02;;
48524;SDS011;34316;51.514;-0.178;2024-01-06T07:10:22;22.25;;;12.35;;
48524;SDS011;34316;51.514;-0.178;2024-01-06T07:12:24;18.52;;;12.27;;
48524;SDS011;34316;51.514;-0.178;2024-01-06T07:14:25;27.42;;;12.57;;
48524;SDS011;34316;51.514;-0.178;2024-01-06T07:16:27;29.27;;;12.10;;
48524;SDS011;34316;51.514;-0.178;2024-01-06T07:20:34;23.08;;;14.52;;
48524;SDS011;34316;51.514;-0.178;2024-01-06T07:22:36;24.33;;;12.90;;
48524;SDS011;34316;51.514;-0.178;2024-01-06T07:24:38;21.77;;;13.15;;
48524;SDS011;34316;51.514;-0.178;2024-01-06T07:26:40;31.52;;;14.45;;
48524;SDS011;34316;51.514;-0.178;2024-01-06T07:28:42;23.23;;;14.25;;
48524;SDS011;34316;51.514;-0.178;2024-01-06T07:30:44;27.88;;;13.13;;
48524;SDS011;34316;51.514;-0.178;2024-01-06T07:32:46;28.85;;;13.93;;
48524;SDS011;34316;51.514;-0.178;2024-01-06T07:34:49;23.50;;;12.02;;
48524;SDS011;34316;51.514;-0.178;2024-01-06T07:36:51;26.75;;;12.88;;
48524;SDS011;34316;51.514;-0.178;2024-01-06T07:38:53;23.45;;;12.45;;
48524;SDS011;34316;51.514;-0.178;2024-01-06T07:40:55;26.13;;;12.73;;
48524;SDS011;34316;51.514;-0.178;2024-01-06T07:42:57;20.58;;;12.20;;
48524;SDS011;34316;51.514;-0.178;2024-01-06T07:44:59;24.00;;;13.60;;
48524;SDS011;34316;51.514;-0.178;2024-01-06T07:47:01;27.15;;;13.77;;
48524;SDS011;34316;51.514;-0.178;2024-01-06T07:49:03;20.13;;;10.60;;
48524;SDS011;34316;51.514;-0.178;2024-01-06T07:51:06;20.00;;;11.43;;
48524;SDS011;34316;51.514;-0.178;2024-01-06T07:53:07;19.42;;;12.43;;
48524;SDS011;34316;51.514;-0.178;2024-01-06T07:55:09;18.90;;;11.50;;
48524;SDS011;34316;51.514;-0.178;2024-01-06T07:57:11;16.95;;;11.52;;
48524;SDS011;34316;51.514;-0.178;2024-01-06T07:59:14;14.80;;;10.40;;
48524;SDS011;34316;51.514;-0.178;2024-01-06T08:01:16;21.45;;;10.88;;
48524;SDS011;34316;51.514;-0.178;2024-01-06T08:03:18;18.45;;;11.77;;
48524;SDS011;34316;51.514;-0.178;2024-01-06T08:05:20;22.75;;;11.77;;
48524;SDS011;34316;51.514;-0.178;2024-01-06T08:07:22;20.67;;;11.82;;
48524;SDS011;34316;51.514;-0.178;2024-01-06T08:09:24;23.48;;;12.18;;
48524;SDS011;34316;51.514;-0.178;2024-01-06T08:11:26;23.15;;;11.00;;
48524;SDS011;34316;51.514;-0.178;2024-01-06T08:13:28;22.02;;;11.55;;
48524;SDS011;34316;51.514;-0.178;2024-01-06T08:15:29;27.52;;;11.55;;
48524;SDS011;34316;51.514;-0.178;2024-01-06T08:17:33;20.23;;;12.02;;
48524;SDS011;34316;51.514;-0.178;2024-01-06T08:19:35;21.30;;;11.88;;
48524;SDS011;34316;51.514;-0.178;2024-01-06T08:21:38;28.15;;;11.25;;
48524;SDS011;34316;51.514;-0.178;2024-01-06T08:23:39;20.83;;;10.02;;
48524;SDS011;34316;51.514;-0.178;2024-01-06T08:25:43;21.65;;;10.73;;
48524;SDS011;34316;51.514;-0.178;2024-01-06T08:27:44;24.27;;;10.80;;
48524;SDS011;34316;51.514;-0.178;2024-01-06T08:29:46;23.45;;;10.50;;
48524;SDS011;34316;51.514;-0.178;2024-01-06T08:31:48;18.00;;;11.60;;
48524;SDS011;34316;51.514;-0.178;2024-01-06T08:33:53;20.27;;;10.75;;
48524;SDS011;34316;51.514;-0.178;2024-01-06T08:35:56;20.00;;;10.98;;
48524;SDS011;34316;51.514;-0.178;2024-01-06T08:37:58;20.00;;;11.13;;
48524;SDS011;34316;51.514;-0.178;2024-01-06T08:40:00;30.55;;;13.00;;
48524;SDS011;34316;51.514;-0.178;2024-01-06T08:42:02;21.55;;;9.77;;
48524;SDS011;34316;51.514;-0.178;2024-01-06T08:44:04;24.13;;;11.25;;
48524;SDS011;34316;51.514;-0.178;2024-01-06T08:46:06;20.58;;;10.00;;
48524;SDS011;34316;51.514;-0.178;2024-01-06T08:48:08;21.33;;;10.95;;
48524;SDS011;34316;51.514;-0.178;2024-01-06T08:50:10;26.70;;;10.38;;
48524;SDS011;34316;51.514;-0.178;2024-01-06T08:52:12;26.98;;;13.82;;
48524;SDS011;34316;51.514;-0.178;2024-01-06T08:54:14;32.40;;;16.13;;
48524;SDS011;34316;51.514;-0.178;2024-01-06T08:56:16;28.63;;;16.55;;
48524;SDS011;34316;51.514;-0.178;2024-01-06T08:58:19;37.10;;;17.45;;
48524;SDS011;34316;51.514;-0.178;2024-01-06T09:00:21;36.38;;;18.75;;
48524;SDS011;34316;51.514;-0.178;2024-01-06T09:02:23;35.90;;;21.50;;
48524;SDS011;34316;51.514;-0.178;2024-01-06T09:04:25;33.97;;;21.42;;
48524;SDS011;34316;51.514;-0.178;2024-01-06T09:06:27;48.05;;;25.05;;
48524;SDS011;34316;51.514;-0.178;2024-01-06T09:08:29;47.70;;;27.67;;
48524;SDS011;34316;51.514;-0.178;2024-01-06T09:10:30;41.47;;;28.92;;
48524;SDS011;34316;51.514;-0.178;2024-01-06T09:12:33;48.88;;;29.50;;
48524;SDS011;34316;51.514;-0.178;2024-01-06T09:14:35;59.50;;;30.33;;
48524;SDS011;34316;51.514;-0.178;2024-01-06T09:16:36;50.80;;;31.52;;
48524;SDS011;34316;51.514;-0.178;2024-01-06T09:18:38;61.20;;;30.00;;
48524;SDS011;34316;51.514;-0.178;2024-01-06T09:20:41;41.90;;;30.63;;
48524;SDS011;34316;51.514;-0.178;2024-01-06T09:22:43;56.85;;;29.75;;
48524;SDS011;34316;51.514;-0.178;2024-01-06T09:24:45;48.80;;;29.58;;
48524;SDS011;34316;51.514;-0.178;2024-01-06T09:26:46;47.38;;;29.17;;
48524;SDS011;34316;51.514;-0.178;2024-01-06T09:28:48;56.00;;;33.13;;
48524;SDS011;34316;51.514;-0.178;2024-01-06T09:30:50;58.95;;;30.73;;
48524;SDS011;34316;51.514;-0.178;2024-01-06T09:32:54;46.15;;;27.80;;
48524;SDS011;34316;51.514;-0.178;2024-01-06T09:34:56;50.38;;;27.20;;
48524;SDS011;34316;51.514;-0.178;2024-01-06T09:36:58;55.85;;;28.25;;
48524;SDS011;34316;51.514;-0.178;2024-01-06T09:39:00;42.03;;;26.95;;
48524;SDS011;34316;51.514;-0.178;2024-01-06T09:41:02;44.42;;;24.98;;
48524;SDS011;34316;51.514;-0.178;2024-01-06T09:43:04;40.03;;;25.10;;
48524;SDS011;34316;51.514;-0.178;2024-01-06T09:45:06;44.53;;;25.75;;
48524;SDS011;34316;51.514;-0.178;2024-01-06T09:47:10;49.45;;;28.40;;
48524;SDS011;34316;51.514;-0.178;2024-01-06T09:49:13;45.60;;;26.13;;
48524;SDS011;34316;51.514;-0.178;2024-01-06T09:51:16;46.72;;;27.20;;
48524;SDS011;34316;51.514;-0.178;2024-01-06T09:53:21;49.88;;;28.23;;
48524;SDS011;34316;51.514;-0.178;2024-01-06T09:55:25;56.65;;;28.13;;
48524;SDS011;34316;51.514;-0.178;2024-01-06T09:57:28;44.88;;;26.75;;
48524;SDS011;34316;51.514;-0.178;2024-01-06T09:59:30;36.25;;;25.42;;
48524;SDS011;34316;51.514;-0.178;2024-01-06T10:01:36;45.80;;;26.23;;
48524;SDS011;34316;51.514;-0.178;2024-01-06T10:03:38;34.00;;;23.83;;
48524;SDS011;34316;51.514;-0.178;2024-01-06T10:05:41;40.30;;;23.27;;
48524;SDS011;34316;51.514;-0.178;2024-01-06T10:07:45;55.15;;;26.60;;
48524;SDS011;34316;51.514;-0.178;2024-01-06T10:09:48;46.45;;;26.67;;
48524;SDS011;34316;51.514;-0.178;2024-01-06T10:11:50;49.28;;;27.35;;
48524;SDS011;34316;51.514;-0.178;2024-01-06T10:13:52;47.53;;;26.17;;
48524;SDS011;34316;51.514;-0.178;2024-01-06T10:15:55;49.90;;;27.27;;
48524;SDS011;34316;51.514;-0.178;2024-01-06T10:17:58;55.90;;;29.38;;
48524;SDS011;34316;51.514;-0.178;2024-01-06T10:20:00;41.70;;;27.88;;
48524;SDS011;34316;51.514;-0.178;2024-01-06T10:22:02;55.42;;;30.80;;
48524;SDS011;34316;51.514;-0.178;2024-01-06T10:24:05;47.65;;;28.05;;
48524;SDS011;34316;51.514;-0.178;2024-01-06T10:26:12;44.97;;;29.10;;
48524;SDS011;34316;51.514;-0.178;2024-01-06T10:28:14;51.30;;;28.83;;
48524;SDS011;34316;51.514;-0.178;2024-01-06T10:30:16;43.33;;;28.63;;
48524;SDS011;34316;51.514;-0.178;2024-01-06T10:32:19;46.25;;;28.10;;
48524;SDS011;34316;51.514;-0.178;2024-01-06T10:34:22;42.55;;;26.77;;
48524;SDS011;34316;51.514;-0.178;2024-01-06T10:36:25;45.17;;;25.88;;
48524;SDS011;34316;51.514;-0.178;2024-01-06T10:38:28;44.85;;;25.90;;
48524;SDS011;34316;51.514;-0.178;2024-01-06T10:40:31;49.20;;;23.75;;
48524;SDS011;34316;51.514;-0.178;2024-01-06T10:42:33;43.75;;;24.95;;
48524;SDS011;34316;51.514;-0.178;2024-01-06T10:44:35;42.25;;;24.48;;
48524;SDS011;34316;51.514;-0.178;2024-01-06T10:46:38;43.08;;;24.75;;
48524;SDS011;34316;51.514;-0.178;2024-01-06T10:48:41;42.00;;;24.40;;
48524;SDS011;34316;51.514;-0.178;2024-01-06T10:50:45;42.95;;;23.73;;
48524;SDS011;34316;51.514;-0.178;2024-01-06T10:52:48;36.47;;;22.00;;
48524;SDS011;34316;51.514;-0.178;2024-01-06T10:54:50;35.50;;;23.42;;
48524;SDS011;34316;51.514;-0.178;2024-01-06T10:56:53;35.95;;;22.52;;
48524;SDS011;34316;51.514;-0.178;2024-01-06T10:58:55;38.47;;;23.45;;
48524;SDS011;34316;51.514;-0.178;2024-01-06T11:00:59;40.78;;;22.60;;
48524;SDS011;34316;51.514;-0.178;2024-01-06T11:03:01;37.92;;;23.15;;
48524;SDS011;34316;51.514;-0.178;2024-01-06T11:05:04;41.85;;;23.10;;
48524;SDS011;34316;51.514;-0.178;2024-01-06T11:07:09;35.85;;;22.20;;
48524;SDS011;34316;51.514;-0.178;2024-01-06T11:09:16;40.63;;;21.65;;
48524;SDS011;34316;51.514;-0.178;2024-01-06T11:11:22;44.58;;;21.05;;
48524;SDS011;34316;51.514;-0.178;2024-01-06T11:13:25;40.75;;;20.98;;
48524;SDS011;34316;51.514;-0.178;2024-01-06T11:15:40;37.80;;;20.60;;
48524;SDS011;34316;51.514;-0.178;2024-01-06T11:17:53;42.63;;;20.50;;
48524;SDS011;34316;51.514;-0.178;2024-01-06T11:20:07;38.08;;;19.88;;
48524;SDS011;34316;51.514;-0.178;2024-01-06T11:24:35;28.52;;;18.95;;
48524;SDS011;34316;51.514;-0.178;2024-01-06T11:26:39;38.08;;;19.88;;
48524;SDS011;34316;51.514;-0.178;2024-01-06T11:28:45;36.63;;;18.02;;
48524;SDS011;34316;51.514;-0.178;2024-01-06T11:30:48;29.25;;;17.58;;
48524;SDS011;34316;51.514;-0.178;2024-01-06T11:33:08;31.33;;;17.02;;
48524;SDS011;34316;51.514;-0.178;2024-01-06T11:35:11;32.88;;;17.65;;
48524;SDS011;34316;51.514;-0.178;2024-01-06T11:37:14;33.67;;;17.15;;
48524;SDS011;34316;51.514;-0.178;2024-01-06T11:39:37;22.83;;;14.88;;
48524;SDS011;34316;51.514;-0.178;2024-01-06T11:41:52;31.05;;;17.30;;
48524;SDS011;34316;51.514;-0.178;2024-01-06T11:45:56;28.20;;;15.25;;
48524;SDS011;34316;51.514;-0.178;2024-01-06T11:48:11;34.35;;;15.02;;
48524;SDS011;34316;51.514;-0.178;2024-01-06T11:50:15;25.85;;;14.77;;
48524;SDS011;34316;51.514;-0.178;2024-01-06T11:52:17;23.40;;;15.10;;
48524;SDS011;34316;51.514;-0.178;2024-01-06T11:54:22;29.33;;;15.20;;